createdAt,value
2016-12-01T00:00:43.908Z,1006.02
2016-12-01T00:01:53.923Z,1005.97
2016-12-01T00:03:04.244Z,1006.14
2016-12-01T00:04:14.564Z,1006.27
2016-12-01T00:05:24.574Z,1006.17
2016-12-01T00:06:33.960Z,1006.14
2016-12-01T00:07:43.971Z,1006.16
2016-12-01T00:08:53.986Z,1006.2
2016-12-01T00:10:04.336Z,1006.28
2016-12-01T00:11:14.655Z,1006.28
2016-12-01T00:12:24.977Z,1006.13
2016-12-01T00:13:35.338Z,1006.17
2016-12-01T00:14:45.357Z,1006.37
2016-12-01T00:15:55.687Z,1006.27
2016-12-01T00:17:05.694Z,1006.15
2016-12-01T00:18:16.026Z,1006.15
2016-12-01T00:19:26.033Z,1006.27
2016-12-01T00:20:36.382Z,1006.17
2016-12-01T00:21:46.387Z,1006.16
2016-12-01T00:22:56.123Z,1006.26
2016-12-01T00:24:06.146Z,1006.2
2016-12-01T00:25:15.851Z,1006.2
2016-12-01T00:26:26.173Z,1006.13
2016-12-01T00:27:36.516Z,1006.16
2016-12-01T00:28:46.844Z,1006.12
2016-12-01T00:29:57.195Z,1006.17
2016-12-01T00:31:07.519Z,1006.19
2016-12-01T00:32:17.852Z,1006.1
2016-12-01T00:33:27.896Z,1006.09
2016-12-01T00:34:37.897Z,1006.05
2016-12-01T00:35:47.908Z,1006.01
2016-12-01T00:36:57.924Z,1006.04
2016-12-01T00:38:07.631Z,1005.99
2016-12-01T00:39:17.048Z,1006.05
2016-12-01T00:40:27.064Z,1006.03
2016-12-01T00:41:37.070Z,1006.01
2016-12-01T00:42:47.083Z,1006.02
2016-12-01T00:43:57.409Z,1006
2016-12-01T00:45:07.427Z,1006.05
2016-12-01T00:46:17.449Z,1006
2016-12-01T00:47:27.474Z,1005.97
2016-12-01T00:48:37.787Z,1005.87
2016-12-01T00:49:48.119Z,1005.85
2016-12-01T00:50:58.132Z,1005.79
2016-12-01T00:52:08.142Z,1005.82
2016-12-01T00:53:18.474Z,1005.83
2016-12-01T00:54:27.856Z,1005.74
2016-12-01T00:55:38.162Z,1005.78
2016-12-01T00:56:47.869Z,1005.75
2016-12-01T00:57:58.441Z,1005.73
2016-12-01T00:59:08.777Z,1005.69
2016-12-01T01:00:18.785Z,1005.67
2016-12-01T01:01:28.795Z,1005.74
2016-12-01T01:02:38.802Z,1005.8
2016-12-01T01:03:48.804Z,1005.78
2016-12-01T01:04:59.129Z,1005.79
2016-12-01T01:06:08.538Z,1005.8
2016-12-01T01:07:18.244Z,1005.82
2016-12-01T01:08:28.287Z,1005.7
2016-12-01T01:09:38.303Z,1005.72
2016-12-01T01:10:48.326Z,1005.72
2016-12-01T01:11:57.728Z,1005.67
2016-12-01T01:13:07.428Z,1005.72
2016-12-01T01:14:17.121Z,1005.67
2016-12-01T01:15:26.808Z,1005.59
2016-12-01T01:16:36.530Z,1005.66
2016-12-01T01:17:46.857Z,1005.66
2016-12-01T01:18:56.877Z,1005.63
2016-12-01T01:20:07.209Z,1005.63
2016-12-01T01:21:17.533Z,1005.54
2016-12-01T01:22:27.865Z,1005.65
2016-12-01T01:23:38.195Z,1005.57
2016-12-01T01:24:48.553Z,1005.6
2016-12-01T01:25:58.258Z,1005.77
2016-12-01T01:27:08.600Z,1005.69
2016-12-01T01:28:18.952Z,1005.7
2016-12-01T01:29:28.659Z,1005.65
2016-12-01T01:30:38.685Z,1005.59
2016-12-01T01:31:48.742Z,1005.59
2016-12-01T01:32:58.750Z,1005.51
2016-12-01T01:34:09.083Z,1005.53
2016-12-01T01:35:19.442Z,1005.6
2016-12-01T01:36:29.785Z,1005.36
2016-12-01T01:37:39.487Z,1005.39
2016-12-01T01:38:49.828Z,1005.48
2016-12-01T01:40:00.149Z,1005.44
2016-12-01T01:41:10.467Z,1005.44
2016-12-01T01:42:20.479Z,1005.41
2016-12-01T01:43:30.810Z,1005.38
2016-12-01T01:44:40.814Z,1005.13
2016-12-01T01:45:50.809Z,1005.37
2016-12-01T01:47:01.131Z,1005.29
2016-12-01T01:48:11.458Z,1005.08
2016-12-01T01:49:21.485Z,1005.26
2016-12-01T01:50:31.492Z,1005.19
2016-12-01T01:51:41.533Z,1005.19
2016-12-01T01:52:51.869Z,1005.05
2016-12-01T01:54:01.576Z,1005.04
2016-12-01T01:55:11.899Z,1004.99
2016-12-01T01:56:22.220Z,1004.96
2016-12-01T01:57:32.224Z,1005.01
2016-12-01T01:58:42.564Z,1005
2016-12-01T01:59:52.920Z,1005.02
2016-12-01T02:01:03.257Z,1005.02
2016-12-01T02:02:13.576Z,1004.99
2016-12-01T02:03:23.896Z,1004.92
2016-12-01T02:04:34.209Z,1004.87
2016-12-01T02:05:44.265Z,1004.98
2016-12-01T02:06:54.594Z,1004.97
2016-12-01T02:08:04.914Z,1004.95
2016-12-01T02:09:15.244Z,1004.85
2016-12-01T02:10:25.254Z,1004.91
2016-12-01T02:11:35.630Z,1004.92
2016-12-01T02:12:45.645Z,1004.91
2016-12-01T02:13:55.982Z,1004.97
2016-12-01T02:15:05.999Z,1004.88
2016-12-01T02:16:16.026Z,1004.99
2016-12-01T02:17:26.348Z,1005
2016-12-01T02:18:36.662Z,1004.99
2016-12-01T02:19:46.384Z,1005
2016-12-01T02:20:56.740Z,1004.87
2016-12-01T02:22:07.061Z,1004.94
2016-12-01T02:23:17.382Z,1004.94
2016-12-01T02:24:27.103Z,1005.01
2016-12-01T02:25:37.151Z,1004.95
2016-12-01T02:26:47.162Z,1004.84
2016-12-01T02:27:56.853Z,1004.88
2016-12-01T02:29:07.180Z,1004.85
2016-12-01T02:30:17.197Z,1004.97
2016-12-01T02:31:27.525Z,1004.99
2016-12-01T02:32:37.222Z,1004.91
2016-12-01T02:33:47.543Z,1004.8
2016-12-01T02:34:57.864Z,1004.94
2016-12-01T02:36:07.878Z,1004.87
2016-12-01T02:37:17.598Z,1004.79
2016-12-01T02:38:27.610Z,1004.88
2016-12-01T02:39:37.932Z,1004.92
2016-12-01T02:40:47.333Z,1004.79
2016-12-01T02:41:57.655Z,1004.89
2016-12-01T02:43:07.672Z,1004.9
2016-12-01T02:44:18.039Z,1004.95
2016-12-01T02:45:28.358Z,1004.99
2016-12-01T02:46:38.678Z,1004.98
2016-12-01T02:47:48.734Z,1005.05
2016-12-01T02:48:59.071Z,1005.12
2016-12-01T02:50:09.388Z,1005.24
2016-12-01T02:51:19.399Z,1005.04
2016-12-01T02:52:29.724Z,1005.09
2016-12-01T02:53:39.105Z,1005.12
2016-12-01T02:54:49.116Z,1005.16
2016-12-01T02:55:59.453Z,1005.14
2016-12-01T02:57:09.465Z,1005.17
2016-12-01T02:58:18.856Z,1005.22
2016-12-01T02:59:28.870Z,1005.26
2016-12-01T03:00:39.189Z,1005.18
2016-12-01T03:32:39.558Z,1005.23
2016-12-01T03:33:48.942Z,1005.12
2016-12-01T03:34:58.945Z,1005.13
2016-12-01T03:36:09.275Z,1005.17
2016-12-01T03:37:19.283Z,1005.08
2016-12-01T03:38:29.610Z,1005.05
2016-12-01T03:39:39.940Z,1005.06
2016-12-01T03:40:50.253Z,1005.05
2016-12-01T03:42:00.598Z,1004.98
2016-12-01T03:43:10.913Z,1005.02
2016-12-01T03:44:21.226Z,1005.09
2016-12-01T03:45:31.276Z,1005.04
2016-12-01T03:46:40.974Z,1005.11
2016-12-01T03:47:51.287Z,1005.09
2016-12-01T03:49:01.295Z,1005.03
2016-12-01T03:50:11.005Z,1005.04
2016-12-01T03:51:21.031Z,1004.96
2016-12-01T03:52:31.349Z,1004.98
2016-12-01T03:53:41.699Z,1004.95
2016-12-01T03:54:51.396Z,1005.03
2016-12-01T03:56:01.713Z,1004.99
2016-12-01T03:57:12.024Z,1004.93
2016-12-01T03:58:21.723Z,1004.96
2016-12-01T03:59:32.282Z,1005.01
2016-12-01T04:00:42.616Z,1004.94
2016-12-01T04:01:52.641Z,1004.98
2016-12-01T04:03:02.963Z,1004.94
2016-12-01T04:04:13.289Z,1004.92
2016-12-01T04:05:23.607Z,1004.97
2016-12-01T04:06:33.947Z,1004.98
2016-12-01T04:07:43.965Z,1005.02
2016-12-01T04:08:54.286Z,1004.9
2016-12-01T04:10:04.289Z,1004.91
2016-12-01T04:11:13.974Z,1004.98
2016-12-01T04:12:23.991Z,1004.92
2016-12-01T04:13:34.021Z,1004.9
2016-12-01T04:14:44.038Z,1004.95
2016-12-01T04:15:54.055Z,1004.96
2016-12-01T04:17:04.072Z,1004.93
2016-12-01T04:18:14.089Z,1004.87
2016-12-01T04:19:24.106Z,1004.95
2016-12-01T04:20:33.813Z,1004.92
2016-12-01T04:21:44.143Z,1004.89
2016-12-01T04:22:54.475Z,1004.83
2016-12-01T04:24:04.815Z,1004.86
2016-12-01T04:25:14.527Z,1004.88
2016-12-01T04:26:24.547Z,1004.93
2016-12-01T04:27:34.873Z,1004.88
2016-12-01T04:28:44.876Z,1004.86
2016-12-01T04:29:54.894Z,1004.87
2016-12-01T04:31:04.923Z,1004.9
2016-12-01T04:32:14.930Z,1004.85
2016-12-01T04:33:25.255Z,1004.87
2016-12-01T04:34:35.585Z,1004.9
2016-12-01T04:35:45.596Z,1004.93
2016-12-01T04:36:54.979Z,1004.9
2016-12-01T04:38:05.310Z,1004.89
2016-12-01T04:39:15.020Z,1004.82
2016-12-01T04:40:25.038Z,1004.89
2016-12-01T04:41:35.375Z,1004.84
2016-12-01T04:42:44.768Z,1004.91
2016-12-01T04:43:54.779Z,1004.98
2016-12-01T04:45:04.795Z,1004.85
2016-12-01T04:46:15.116Z,1004.95
2016-12-01T04:47:25.445Z,1004.9
2016-12-01T04:48:35.150Z,1004.84
2016-12-01T04:49:44.867Z,1004.94
2016-12-01T04:50:54.878Z,1004.9
2016-12-01T04:52:05.204Z,1004.86
2016-12-01T04:53:15.531Z,1004.94
2016-12-01T04:54:25.892Z,1004.92
2016-12-01T04:55:35.909Z,1004.84
2016-12-01T04:56:45.617Z,1004.89
2016-12-01T04:57:55.939Z,1004.88
2016-12-01T04:59:05.870Z,1004.92
2016-12-01T05:00:16.201Z,1004.96
2016-12-01T05:01:26.523Z,1004.88
2016-12-01T05:02:36.555Z,1004.81
2016-12-01T05:03:46.576Z,1004.8
2016-12-01T05:04:56.896Z,1004.84
2016-12-01T05:06:06.933Z,1004.86
2016-12-01T05:07:17.270Z,1004.92
2016-12-01T05:08:27.591Z,1004.84
2016-12-01T05:09:37.923Z,1004.86
2016-12-01T05:10:47.940Z,1004.89
2016-12-01T05:11:57.953Z,1004.91
2016-12-01T05:13:08.285Z,1004.99
2016-12-01T05:14:18.314Z,1004.85
2016-12-01T05:15:28.017Z,1004.8
2016-12-01T05:16:38.359Z,1004.83
2016-12-01T05:17:48.375Z,1004.76
2016-12-01T05:18:58.696Z,1004.74
2016-12-01T05:20:09.015Z,1004.66
2016-12-01T05:21:19.351Z,1004.75
2016-12-01T05:22:29.366Z,1004.79
2016-12-01T05:23:39.718Z,1004.77
2016-12-01T05:24:49.730Z,1004.75
2016-12-01T05:25:59.747Z,1004.72
2016-12-01T05:27:09.756Z,1004.83
2016-12-01T05:28:20.075Z,1004.77
2016-12-01T05:29:30.397Z,1004.8
2016-12-01T05:30:40.423Z,1004.72
2016-12-01T05:31:50.755Z,1004.7
2016-12-01T05:33:00.452Z,1004.63
2016-12-01T05:34:10.464Z,1004.72
2016-12-01T05:35:20.477Z,1004.63
2016-12-01T05:36:30.819Z,1004.6
2016-12-01T05:37:41.399Z,1004.65
2016-12-01T05:38:51.101Z,1004.68
2016-12-01T05:40:01.471Z,1004.61
2016-12-01T05:41:11.784Z,1004.67
2016-12-01T05:42:21.795Z,1004.56
2016-12-01T05:43:31.802Z,1004.65
2016-12-01T05:44:41.813Z,1004.6
2016-12-01T05:45:52.171Z,1004.64
2016-12-01T05:47:02.497Z,1004.6
2016-12-01T05:48:13.054Z,1004.56
2016-12-01T05:49:23.066Z,1004.62
2016-12-01T05:50:33.076Z,1004.55
2016-12-01T05:51:42.782Z,1004.54
2016-12-01T05:52:52.789Z,1004.5
2016-12-01T05:54:02.491Z,1004.56
2016-12-01T05:55:12.526Z,1004.51
2016-12-01T05:56:22.539Z,1004.52
2016-12-01T05:57:32.595Z,1004.51
2016-12-01T05:58:42.617Z,1004.47
2016-12-01T05:59:52.639Z,1004.47
2016-12-01T06:01:02.686Z,1004.45
2016-12-01T06:02:13.027Z,1004.5
2016-12-01T06:03:23.044Z,1004.56
2016-12-01T06:04:33.411Z,1004.39
2016-12-01T06:05:43.737Z,1004.49
2016-12-01T06:06:53.760Z,1004.5
2016-12-01T06:08:03.776Z,1004.53
2016-12-01T06:09:13.797Z,1004.48
2016-12-01T06:10:24.129Z,1004.38
2016-12-01T06:11:34.457Z,1004.39
2016-12-01T06:12:44.157Z,1004.38
2016-12-01T06:13:54.174Z,1004.39
2016-12-01T06:15:03.881Z,1004.4
2016-12-01T06:16:13.632Z,1004.51
2016-12-01T06:17:23.345Z,1004.49
2016-12-01T06:18:33.671Z,1004.5
2016-12-01T06:19:43.991Z,1004.48
2016-12-01T06:20:53.689Z,1004.49
2016-12-01T06:22:03.711Z,1004.45
2016-12-01T06:23:13.722Z,1004.49
2016-12-01T06:24:24.043Z,1004.61
2016-12-01T06:25:34.356Z,1004.47
2016-12-01T06:26:44.369Z,1004.53
2016-12-01T06:27:54.385Z,1004.52
2016-12-01T06:29:04.771Z,1004.45
2016-12-01T06:30:14.782Z,1004.55
2016-12-01T06:31:24.789Z,1004.41
2016-12-01T06:32:34.826Z,1004.46
2016-12-01T06:33:44.892Z,1004.58
2016-12-01T06:34:54.319Z,1004.54
2016-12-01T06:36:03.734Z,1004.47
2016-12-01T06:37:14.057Z,1004.53
2016-12-01T06:38:24.102Z,1004.52
2016-12-01T06:39:33.816Z,1004.42
2016-12-01T06:40:44.142Z,1004.49
2016-12-01T06:41:53.841Z,1004.55
2016-12-01T06:43:03.860Z,1004.47
2016-12-01T06:44:14.178Z,1004.44
2016-12-01T06:45:24.516Z,1004.52
2016-12-01T06:46:34.231Z,1004.57
2016-12-01T06:47:44.249Z,1004.51
2016-12-01T06:48:53.968Z,1004.54
2016-12-01T06:50:04.299Z,1004.45
2016-12-01T06:51:13.992Z,1004.46
2016-12-01T06:52:23.694Z,1004.41
2016-12-01T06:53:34.027Z,1004.43
2016-12-01T06:54:44.381Z,1004.41
2016-12-01T06:55:54.103Z,1004.46
2016-12-01T06:57:03.811Z,1004.47
2016-12-01T06:58:14.131Z,1004.42
2016-12-01T06:59:24.455Z,1004.38
2016-12-01T07:00:34.767Z,1004.32
2016-12-01T07:01:44.792Z,1004.32
2016-12-01T07:02:54.831Z,1004.34
2016-12-01T07:04:05.146Z,1004.39
2016-12-01T07:05:15.178Z,1004.35
2016-12-01T07:06:25.199Z,1004.38
2016-12-01T07:07:35.535Z,1004.36
2016-12-01T07:08:45.867Z,1004.34
2016-12-01T07:09:55.884Z,1004.28
2016-12-01T07:11:06.205Z,1004.32
2016-12-01T07:12:15.932Z,1004.27
2016-12-01T07:13:26.252Z,1004.24
2016-12-01T07:14:36.581Z,1004.32
2016-12-01T07:15:46.913Z,1004.27
2016-12-01T07:16:57.243Z,1004.21
2016-12-01T07:18:07.252Z,1004.27
2016-12-01T07:19:17.269Z,1004.3
2016-12-01T07:20:27.298Z,1004.15
2016-12-01T07:21:37.351Z,1004.25
2016-12-01T07:22:46.733Z,1004.26
2016-12-01T07:23:57.090Z,1004.26
2016-12-01T07:25:07.121Z,1004.18
2016-12-01T07:26:17.142Z,1004.24
2016-12-01T07:27:27.165Z,1004.18
2016-12-01T07:28:37.167Z,1004.26
2016-12-01T07:29:47.504Z,1004.27
2016-12-01T07:30:57.215Z,1004.29
2016-12-01T07:32:06.915Z,1004.28
2016-12-01T07:33:16.932Z,1004.25
2016-12-01T07:34:26.949Z,1004.33
2016-12-01T07:35:37.290Z,1004.26
2016-12-01T07:36:47.613Z,1004.28
2016-12-01T07:37:57.696Z,1004.18
2016-12-01T07:39:08.016Z,1004.43
2016-12-01T07:40:18.379Z,1004.2
2016-12-01T07:41:28.719Z,1004.25
2016-12-01T07:42:38.756Z,1004.22
2016-12-01T07:43:48.768Z,1004.08
2016-12-01T07:44:59.094Z,1004.12
2016-12-01T07:46:08.817Z,1004.11
2016-12-01T07:47:18.835Z,1004.06
2016-12-01T07:48:29.155Z,1004.08
2016-12-01T07:49:38.858Z,1004.04
2016-12-01T07:50:49.199Z,1003.97
2016-12-01T07:51:59.542Z,1003.9
2016-12-01T07:53:09.249Z,1003.96
2016-12-01T07:54:19.290Z,1003.96
2016-12-01T07:55:29.610Z,1003.87
2016-12-01T07:56:39.981Z,1003.82
2016-12-01T07:57:50.313Z,1003.74
2016-12-01T07:59:00.649Z,1003.65
2016-12-01T08:00:10.671Z,1003.64
2016-12-01T08:01:20.367Z,1003.7
2016-12-01T08:02:30.690Z,1003.73
2016-12-01T08:03:40.712Z,1003.75
2016-12-01T08:04:51.038Z,1003.68
2016-12-01T08:06:01.365Z,1003.66
2016-12-01T08:07:11.388Z,1003.54
2016-12-01T08:08:21.393Z,1003.57
2016-12-01T08:09:31.764Z,1003.67
2016-12-01T08:10:41.773Z,1003.63
2016-12-01T08:11:51.782Z,1003.7
2016-12-01T08:13:02.119Z,1003.73
2016-12-01T08:14:12.166Z,1003.75
2016-12-01T08:15:22.204Z,1003.51
2016-12-01T08:16:32.550Z,1003.49
2016-12-01T08:17:42.576Z,1003.47
2016-12-01T08:18:52.587Z,1003.44
2016-12-01T08:20:02.290Z,1003.45
2016-12-01T08:21:12.298Z,1003.5
2016-12-01T08:22:22.312Z,1003.44
2016-12-01T08:23:32.339Z,1003.42
2016-12-01T08:24:42.688Z,1003.41
2016-12-01T08:25:53.010Z,1003.46
2016-12-01T08:27:03.344Z,1003.44
2016-12-01T08:28:13.670Z,1003.37
2016-12-01T08:29:23.688Z,1003.38
2016-12-01T08:30:33.714Z,1003.39
2016-12-01T08:31:44.040Z,1003.37
2016-12-01T08:32:54.084Z,1003.34
2016-12-01T08:34:04.121Z,1003.31
2016-12-01T08:35:14.455Z,1003.51
2016-12-01T08:36:24.471Z,1003.36
2016-12-01T08:37:34.820Z,1003.35
2016-12-01T08:38:45.147Z,1003.4
2016-12-01T08:39:54.536Z,1003.43
2016-12-01T08:41:04.867Z,1003.31
2016-12-01T08:42:14.900Z,1003.39
2016-12-01T08:43:24.942Z,1003.47
2016-12-01T08:44:34.954Z,1003.32
2016-12-01T08:45:45.301Z,1003.43
2016-12-01T08:46:55.640Z,1003.44
2016-12-01T08:48:05.339Z,1003.38
2016-12-01T08:49:15.354Z,1003.36
2016-12-01T08:50:25.667Z,1003.37
2016-12-01T08:51:36.009Z,1003.32
2016-12-01T08:52:46.030Z,1003.4
2016-12-01T08:53:56.047Z,1003.41
2016-12-01T08:55:05.455Z,1003.36
2016-12-01T08:56:15.776Z,1003.35
2016-12-01T08:57:25.812Z,1003.37
2016-12-01T08:58:36.139Z,1003.42
2016-12-01T08:59:45.520Z,1003.44
2016-12-01T09:00:55.857Z,1003.41
2016-12-01T09:02:05.880Z,1003.39
2016-12-01T09:03:15.901Z,1003.34
2016-12-01T09:04:25.912Z,1003.32
2016-12-01T09:05:35.609Z,1003.38
2016-12-01T09:06:45.652Z,1003.27
2016-12-01T09:07:55.673Z,1003.35
2016-12-01T09:09:05.383Z,1003.29
2016-12-01T09:10:15.392Z,1003.23
2016-12-01T09:11:25.086Z,1003.28
2016-12-01T09:12:34.502Z,1003.21
2016-12-01T09:13:44.835Z,1003.24
2016-12-01T09:14:54.855Z,1003.28
2016-12-01T09:16:04.875Z,1003.26
2016-12-01T09:17:14.581Z,1003.21
2016-12-01T09:18:24.613Z,1003.32
2016-12-01T09:19:34.634Z,1003.25
2016-12-01T09:20:44.646Z,1003.13
2016-12-01T09:21:54.060Z,1003.12
2016-12-01T09:23:04.095Z,1003.07
2016-12-01T09:24:13.496Z,1003.05
2016-12-01T09:25:23.548Z,1003.05
2016-12-01T09:26:33.253Z,1003.04
2016-12-01T09:27:42.970Z,1002.96
2016-12-01T09:28:53.293Z,1002.95
2016-12-01T09:30:03.366Z,1002.89
2016-12-01T09:31:14.344Z,1002.84
2016-12-01T09:32:28.032Z,1002.81
2016-12-01T09:33:40.516Z,1002.84
2016-12-01T09:34:59.273Z,1002.79
2016-12-01T09:36:09.698Z,1002.83
2016-12-01T09:37:19.805Z,1002.91
2016-12-01T09:38:30.167Z,1002.88
2016-12-01T09:39:39.885Z,1002.92
2016-12-01T09:40:50.632Z,1002.93
2016-12-01T09:42:00.959Z,1002.83
2016-12-01T09:43:11.055Z,1002.79
2016-12-01T09:44:21.246Z,1002.76
2016-12-01T09:45:31.317Z,1002.86
2016-12-01T09:46:41.704Z,1002.73
2016-12-01T09:47:51.725Z,1002.65
2016-12-01T09:49:01.699Z,1002.75
2016-12-01T09:50:11.762Z,1002.71
2016-12-01T09:51:22.102Z,1002.64
2016-12-01T09:52:32.129Z,1002.62
2016-12-01T09:53:42.417Z,1002.57
2016-12-01T09:54:52.850Z,1002.52
2016-12-01T09:56:03.239Z,1002.71
2016-12-01T09:57:13.569Z,1002.62
2016-12-01T09:58:23.684Z,1002.66
2016-12-01T09:59:33.714Z,1002.6
2016-12-01T10:00:43.175Z,1002.63
2016-12-01T10:01:53.541Z,1002.61
2016-12-01T10:03:03.673Z,1002.64
2016-12-01T10:04:14.049Z,1002.58
2016-12-01T10:05:24.455Z,1002.58
2016-12-01T10:06:34.828Z,1002.61
2016-12-01T10:07:45.226Z,1002.54
2016-12-01T10:08:54.967Z,1002.46
2016-12-01T10:10:05.169Z,1002.48
2016-12-01T10:11:15.506Z,1002.43
2016-12-01T10:12:25.848Z,1002.46
2016-12-01T10:13:35.897Z,1002.47
2016-12-01T10:14:46.270Z,1002.4
2016-12-01T10:15:56.661Z,1002.47
2016-12-01T10:17:06.715Z,1002.26
2016-12-01T10:18:16.491Z,1002.32
2016-12-01T10:19:26.583Z,1002.33
2016-12-01T10:20:36.930Z,1002.26
2016-12-01T10:21:46.711Z,1002.18
2016-12-01T10:22:57.043Z,1002.15
2016-12-01T10:24:07.364Z,1002.27
2016-12-01T10:25:17.712Z,1002.14
2016-12-01T10:26:27.433Z,1002.16
2016-12-01T10:27:37.769Z,1002.12
2016-12-01T10:28:48.078Z,1002.06
2016-12-01T10:29:58.094Z,1002.14
2016-12-01T10:31:08.136Z,1001.94
2016-12-01T10:32:18.501Z,1002.03
2016-12-01T10:33:28.546Z,1002.08
2016-12-01T10:34:38.576Z,1001.86
2016-12-01T10:35:48.591Z,1001.78
2016-12-01T10:36:58.619Z,1001.73
2016-12-01T10:38:08.973Z,1001.85
2016-12-01T10:39:19.003Z,1001.76
2016-12-01T10:40:29.334Z,1001.73
2016-12-01T10:41:39.047Z,1001.78
2016-12-01T10:42:49.409Z,1001.8
2016-12-01T10:43:59.731Z,1001.65
2016-12-01T10:45:09.431Z,1001.73
2016-12-01T10:46:19.777Z,1001.47
2016-12-01T10:47:29.796Z,1001.59
2016-12-01T10:48:40.131Z,1001.49
2016-12-01T10:49:50.143Z,1001.46
2016-12-01T10:51:00.179Z,1001.56
2016-12-01T10:52:10.502Z,1001.53
2016-12-01T10:53:20.527Z,1001.47
2016-12-01T10:54:30.857Z,1001.68
2016-12-01T10:55:41.192Z,1001.53
2016-12-01T10:56:51.532Z,1001.5
2016-12-01T10:58:01.885Z,1001.48
2016-12-01T10:59:12.212Z,1001.43
2016-12-01T11:00:22.545Z,1001.44
2016-12-01T11:01:32.570Z,1001.62
2016-12-01T11:02:42.321Z,1001.43
2016-12-01T11:03:52.354Z,1001.44
2016-12-01T11:05:02.065Z,1001.36
2016-12-01T11:06:11.767Z,1001.45
2016-12-01T11:07:22.088Z,1001.37
2016-12-01T11:08:32.427Z,1001.49
2016-12-01T11:09:42.762Z,1001.54
2016-12-01T11:10:53.101Z,1001.42
2016-12-01T11:12:03.474Z,1001.56
2016-12-01T11:13:13.501Z,1001.5
2016-12-01T11:14:23.199Z,1001.59
2016-12-01T11:15:33.526Z,1001.39
2016-12-01T11:16:43.874Z,1001.32
2016-12-01T11:17:54.207Z,1001.4
2016-12-01T11:19:04.560Z,1001.25
2016-12-01T11:20:14.845Z,1001.34
2016-12-01T11:21:24.569Z,1001.27
2016-12-01T11:22:34.277Z,1001.17
2016-12-01T11:23:44.613Z,1001.23
2016-12-01T11:24:54.624Z,1001.31
2016-12-01T11:26:04.677Z,1001.28
2016-12-01T11:27:15.008Z,1001.1
2016-12-01T11:28:24.713Z,1001.11
2016-12-01T11:29:34.798Z,1001.07
2016-12-01T11:30:44.188Z,1001.18
2016-12-01T11:31:54.220Z,1001.16
2016-12-01T11:33:04.571Z,1001.15
2016-12-01T11:34:14.895Z,1001.11
2016-12-01T11:35:25.232Z,1001.19
2016-12-01T11:36:35.273Z,1001.03
2016-12-01T11:37:44.982Z,1001.1
2016-12-01T11:38:55.310Z,1001.07
2016-12-01T11:40:05.256Z,1001.15
2016-12-01T11:41:15.595Z,1001.01
2016-12-01T11:42:25.596Z,1001.15
2016-12-01T11:43:35.917Z,1000.91
2016-12-01T11:44:45.937Z,1000.89
2016-12-01T11:45:56.289Z,1000.88
2016-12-01T11:47:05.703Z,1000.85
2016-12-01T11:48:15.418Z,1000.95
2016-12-01T11:49:25.750Z,1000.86
2016-12-01T11:50:35.768Z,1000.85
2016-12-01T11:51:45.816Z,1000.86
2016-12-01T11:52:56.443Z,1001
2016-12-01T11:54:07.021Z,1000.9
2016-12-01T11:55:17.060Z,1000.84
2016-12-01T11:56:27.630Z,1000.85
2016-12-01T11:57:37.980Z,1000.8
2016-12-01T11:58:47.756Z,1000.79
2016-12-01T11:59:57.770Z,1000.74
2016-12-01T12:01:08.107Z,1000.68
2016-12-01T12:02:18.154Z,1000.73
2016-12-01T12:03:28.184Z,1000.73
2016-12-01T12:04:38.207Z,1000.58
2016-12-01T12:05:48.545Z,1000.71
2016-12-01T12:06:58.906Z,1000.67
2016-12-01T12:08:08.927Z,1000.6
2016-12-01T12:09:18.947Z,1000.61
2016-12-01T12:10:28.961Z,1000.52
2016-12-01T12:11:38.983Z,1000.55
2016-12-01T12:12:49.001Z,1000.42
2016-12-01T12:13:59.330Z,1000.33
2016-12-01T12:15:09.675Z,1000.44
2016-12-01T12:16:19.698Z,1000.34
2016-12-01T12:17:30.023Z,1000.23
2016-12-01T12:18:39.748Z,1000.32
2016-12-01T12:19:49.765Z,1000.41
2016-12-01T12:20:59.787Z,1000.32
2016-12-01T12:22:08.880Z,1000.36
2016-12-01T12:23:19.236Z,1000.33
2016-12-01T12:24:29.572Z,1000.31
2016-12-01T12:25:38.969Z,1000.34
2016-12-01T12:26:49.316Z,1000.4
2016-12-01T12:27:59.652Z,1000.43
2016-12-01T12:29:09.385Z,1000.45
2016-12-01T12:30:19.746Z,1000.35
2016-12-01T12:31:29.788Z,1000.33
2016-12-01T12:32:39.499Z,1000.47
2016-12-01T12:33:49.850Z,1000.41
2016-12-01T12:35:00.181Z,1000.3
2016-12-01T12:36:10.511Z,1000.25
2016-12-01T12:37:20.852Z,1000.22
2016-12-01T12:38:30.872Z,1000.23
2016-12-01T12:39:40.891Z,1000.14
2016-12-01T12:40:51.234Z,1000.27
2016-12-01T12:42:01.259Z,1000.25
2016-12-01T12:43:11.588Z,1000.14
2016-12-01T12:44:21.310Z,1000.08
2016-12-01T12:45:31.017Z,1000.08
2016-12-01T12:46:41.354Z,1000
2016-12-01T12:47:51.376Z,999.93
2016-12-01T12:49:01.447Z,1000
2016-12-01T12:50:11.545Z,999.85
2016-12-01T12:51:21.926Z,999.95
2016-12-01T12:52:32.312Z,999.98
2016-12-01T12:53:42.687Z,999.86
2016-12-01T12:54:52.452Z,999.99
2016-12-01T12:56:02.839Z,999.87
2016-12-01T12:57:13.216Z,999.86
2016-12-01T12:58:23.274Z,1000
2016-12-01T12:59:33.345Z,999.91
2016-12-01T13:00:43.427Z,999.94
2016-12-01T13:01:53.510Z,999.92
2016-12-01T13:03:03.930Z,999.84
2016-12-01T13:04:14.305Z,999.9
2016-12-01T13:05:24.600Z,999.83
2016-12-01T13:06:34.341Z,999.77
2016-12-01T13:07:44.083Z,999.82
2016-12-01T13:08:54.155Z,999.77
2016-12-01T13:10:03.926Z,999.74
2016-12-01T13:11:14.273Z,999.81
2016-12-01T13:12:24.667Z,999.69
2016-12-01T13:13:34.365Z,999.65
2016-12-01T13:14:44.421Z,999.66
2016-12-01T13:15:54.448Z,999.67
2016-12-01T13:17:04.500Z,999.45
2016-12-01T13:18:14.537Z,999.55
2016-12-01T13:19:24.661Z,999.58
2016-12-01T13:20:35.017Z,999.48
2016-12-01T13:21:44.746Z,999.42
2016-12-01T13:22:54.452Z,999.54
2016-12-01T13:24:04.810Z,999.44
2016-12-01T13:25:14.865Z,999.42
2016-12-01T13:26:25.250Z,999.56
2016-12-01T13:27:35.627Z,999.58
2016-12-01T13:28:45.672Z,999.74
2016-12-01T13:29:55.409Z,999.61
2016-12-01T13:31:05.471Z,999.63
2016-12-01T13:32:15.820Z,999.59
2016-12-01T13:33:25.867Z,999.71
2016-12-01T13:34:36.236Z,999.64
2016-12-01T13:35:46.579Z,999.66
2016-12-01T13:36:56.612Z,999.77
2016-12-01T13:38:06.973Z,999.68
2016-12-01T13:39:17.003Z,999.71
2016-12-01T13:40:27.364Z,999.47
2016-12-01T13:41:37.741Z,999.56
2016-12-01T13:42:48.146Z,999.54
2016-12-01T13:43:58.526Z,999.38
2016-12-01T13:45:08.912Z,999.49
2016-12-01T13:46:18.679Z,999.61
2016-12-01T13:47:29.073Z,999.51
2016-12-01T13:48:39.523Z,999.45
2016-12-01T13:49:49.877Z,999.49
2016-12-01T13:51:00.295Z,999.42
2016-12-01T13:52:10.058Z,999.43
2016-12-01T13:53:20.488Z,999.45
2016-12-01T13:54:30.524Z,999.51
2016-12-01T13:55:40.867Z,999.48
2016-12-01T13:56:50.912Z,999.5
2016-12-01T13:58:00.660Z,999.63
2016-12-01T13:59:11.058Z,999.54
2016-12-01T14:00:20.788Z,999.55
2016-12-01T14:01:30.896Z,999.58
2016-12-01T14:02:40.939Z,999.44
2016-12-01T14:03:51.274Z,999.46
2016-12-01T14:05:01.649Z,999.4
2016-12-01T14:06:11.685Z,999.46
2016-12-01T14:07:22.037Z,999.42
2016-12-01T14:08:32.057Z,999.54
2016-12-01T14:09:42.405Z,999.54
2016-12-01T14:10:52.752Z,999.4
2016-12-01T14:12:03.110Z,999.49
2016-12-01T14:13:13.454Z,999.45
2016-12-01T14:14:23.820Z,999.39
2016-12-01T14:15:34.159Z,999.56
2016-12-01T14:16:44.496Z,999.51
2016-12-01T14:17:54.852Z,999.53
2016-12-01T14:19:04.860Z,999.54
2016-12-01T14:20:14.889Z,999.35
2016-12-01T14:21:25.222Z,999.82
2016-12-01T14:22:35.559Z,999.55
2016-12-01T14:23:45.916Z,999.57
2016-12-01T14:24:56.294Z,999.56
2016-12-01T14:26:06.654Z,999.48
2016-12-01T14:27:16.683Z,999.57
2016-12-01T14:28:26.721Z,999.38
2016-12-01T14:29:36.438Z,999.47
2016-12-01T14:30:46.791Z,999.47
2016-12-01T14:31:57.148Z,999.52
2016-12-01T14:33:06.867Z,999.27
2016-12-01T14:34:17.201Z,999.45
2016-12-01T14:35:27.264Z,999.35
2016-12-01T14:36:37.592Z,999.41
2016-12-01T14:37:47.616Z,999.38
2016-12-01T14:38:57.668Z,999.41
2016-12-01T14:40:07.398Z,999.39
2016-12-01T14:41:17.733Z,999.45
2016-12-01T14:42:27.746Z,999.42
2016-12-01T14:43:38.097Z,999.45
2016-12-01T14:44:48.125Z,999.4
2016-12-01T14:45:58.151Z,999.28